sensor_id;sensor_type;location;lat;lon;timestamp;P1;durP1;ratioP1;P2;durP2;ratioP2
10473;SDS011;5284;50.446;7.904;2023-02-19T00:00:36;4.65;;;3.97;;
10473;SDS011;5284;50.446;7.904;2023-02-19T00:05:40;4.80;;;3.58;;
10473;SDS011;5284;50.446;7.904;2023-02-19T00:10:43;7.55;;;3.88;;
10473;SDS011;5284;50.446;7.904;2023-02-19T00:15:46;4.85;;;3.90;;
10473;SDS011;5284;50.446;7.904;2023-02-19T00:20:50;6.88;;;3.88;;
10473;SDS011;5284;50.446;7.904;2023-02-19T00:25:53;5.00;;;4.20;;
10473;SDS011;5284;50.446;7.904;2023-02-19T00:31:04;3.90;;;3.45;;
10473;SDS011;5284;50.446;7.904;2023-02-19T00:36:09;5.93;;;4.10;;
10473;SDS011;5284;50.446;7.904;2023-02-19T00:41:12;4.78;;;3.58;;
10473;SDS011;5284;50.446;7.904;2023-02-19T00:46:23;3.58;;;3.00;;
10473;SDS011;5284;50.446;7.904;2023-02-19T00:51:30;5.80;;;4.57;;
10473;SDS011;5284;50.446;7.904;2023-02-19T00:56:33;5.00;;;3.80;;
10473;SDS011;5284;50.446;7.904;2023-02-19T01:01:36;4.57;;;3.90;;
10473;SDS011;5284;50.446;7.904;2023-02-19T01:06:40;3.75;;;3.08;;
10473;SDS011;5284;50.446;7.904;2023-02-19T01:11:43;4.13;;;3.38;;
10473;SDS011;5284;50.446;7.904;2023-02-19T01:16:46;6.68;;;3.53;;
10473;SDS011;5284;50.446;7.904;2023-02-19T01:21:50;4.60;;;4.10;;
10473;SDS011;5284;50.446;7.904;2023-02-19T01:26:53;4.72;;;3.78;;
10473;SDS011;5284;50.446;7.904;2023-02-19T01:31:56;7.03;;;3.22;;
10473;SDS011;5284;50.446;7.904;2023-02-19T01:37:00;3.58;;;3.10;;
10473;SDS011;5284;50.446;7.904;2023-02-19T01:42:03;4.43;;;3.30;;
10473;SDS011;5284;50.446;7.904;2023-02-19T01:47:07;2.60;;;2.40;;
10473;SDS011;5284;50.446;7.904;2023-02-19T01:52:11;3.63;;;2.40;;
10473;SDS011;5284;50.446;7.904;2023-02-19T01:57:18;2.25;;;2.05;;
10473;SDS011;5284;50.446;7.904;2023-02-19T02:02:23;2.78;;;2.35;;
10473;SDS011;5284;50.446;7.904;2023-02-19T02:07:30;2.50;;;2.28;;
10473;SDS011;5284;50.446;7.904;2023-02-19T02:12:51;1.67;;;1.50;;
10473;SDS011;5284;50.446;7.904;2023-02-19T02:18:01;3.95;;;1.85;;
10473;SDS011;5284;50.446;7.904;2023-02-19T02:23:15;2.10;;;1.90;;
10473;SDS011;5284;50.446;7.904;2023-02-19T02:28:31;2.35;;;2.10;;
10473;SDS011;5284;50.446;7.904;2023-02-19T02:33:52;1.65;;;1.52;;
10473;SDS011;5284;50.446;7.904;2023-02-19T02:38:59;2.25;;;1.80;;
10473;SDS011;5284;50.446;7.904;2023-02-19T02:44:08;2.22;;;1.88;;
10473;SDS011;5284;50.446;7.904;2023-02-19T02:49:15;2.22;;;1.95;;
10473;SDS011;5284;50.446;7.904;2023-02-19T02:54:25;3.47;;;1.98;;
10473;SDS011;5284;50.446;7.904;2023-02-19T02:59:49;1.70;;;1.43;;
10473;SDS011;5284;50.446;7.904;2023-02-19T03:04:59;2.03;;;1.55;;
10473;SDS011;5284;50.446;7.904;2023-02-19T03:10:25;1.92;;;1.63;;
10473;SDS011;5284;50.446;7.904;2023-02-19T03:15:37;1.35;;;1.25;;
10473;SDS011;5284;50.446;7.904;2023-02-19T03:21:01;1.65;;;1.10;;
10473;SDS011;5284;50.446;7.904;2023-02-19T03:26:06;0.83;;;0.67;;
10473;SDS011;5284;50.446;7.904;2023-02-19T03:31:17;1.00;;;0.70;;
10473;SDS011;5284;50.446;7.904;2023-02-19T03:36:23;0.95;;;0.85;;
10473;SDS011;5284;50.446;7.904;2023-02-19T03:41:32;0.82;;;0.77;;
10473;SDS011;5284;50.446;7.904;2023-02-19T03:51:49;0.88;;;0.60;;
10473;SDS011;5284;50.446;7.904;2023-02-19T03:56:57;0.45;;;0.40;;
10473;SDS011;5284;50.446;7.904;2023-02-19T04:02:06;0.50;;;0.50;;
10473;SDS011;5284;50.446;7.904;2023-02-19T04:07:14;0.68;;;0.60;;
10473;SDS011;5284;50.446;7.904;2023-02-19T04:19:01;0.98;;;0.88;;
10473;SDS011;5284;50.446;7.904;2023-02-19T04:24:10;1.48;;;1.00;;
10473;SDS011;5284;50.446;7.904;2023-02-19T04:29:16;1.35;;;1.15;;
10473;SDS011;5284;50.446;7.904;2023-02-19T04:34:18;2.00;;;1.73;;
10473;SDS011;5284;50.446;7.904;2023-02-19T04:39:22;2.33;;;1.73;;
10473;SDS011;5284;50.446;7.904;2023-02-19T04:44:25;3.08;;;1.60;;
10473;SDS011;5284;50.446;7.904;2023-02-19T04:49:28;4.35;;;1.98;;
10473;SDS011;5284;50.446;7.904;2023-02-19T04:54:32;8.65;;;1.98;;
10473;SDS011;5284;50.446;7.904;2023-02-19T04:59:35;12.25;;;4.50;;
10473;SDS011;5284;50.446;7.904;2023-02-19T05:04:38;3.53;;;2.15;;
10473;SDS011;5284;50.446;7.904;2023-02-19T05:09:42;7.30;;;3.35;;
10473;SDS011;5284;50.446;7.904;2023-02-19T05:14:45;8.52;;;3.53;;
10473;SDS011;5284;50.446;7.904;2023-02-19T05:19:48;8.23;;;4.00;;
10473;SDS011;5284;50.446;7.904;2023-02-19T05:24:52;4.68;;;3.28;;
10473;SDS011;5284;50.446;7.904;2023-02-19T05:29:55;7.25;;;4.25;;
10473;SDS011;5284;50.446;7.904;2023-02-19T05:34:57;11.68;;;4.53;;
10473;SDS011;5284;50.446;7.904;2023-02-19T05:40:02;11.85;;;4.80;;
10473;SDS011;5284;50.446;7.904;2023-02-19T05:45:05;8.73;;;4.32;;
10473;SDS011;5284;50.446;7.904;2023-02-19T05:50:09;10.80;;;4.22;;
10473;SDS011;5284;50.446;7.904;2023-02-19T05:55:13;15.52;;;6.68;;
10473;SDS011;5284;50.446;7.904;2023-02-19T06:00:16;13.55;;;5.65;;
10473;SDS011;5284;50.446;7.904;2023-02-19T06:05:21;15.77;;;6.03;;
10473;SDS011;5284;50.446;7.904;2023-02-19T06:10:25;15.80;;;5.03;;
10473;SDS011;5284;50.446;7.904;2023-02-19T06:15:28;11.02;;;5.25;;
10473;SDS011;5284;50.446;7.904;2023-02-19T06:20:31;13.30;;;6.13;;
10473;SDS011;5284;50.446;7.904;2023-02-19T06:25:35;12.40;;;5.35;;
10473;SDS011;5284;50.446;7.904;2023-02-19T06:30:38;16.02;;;6.25;;
10473;SDS011;5284;50.446;7.904;2023-02-19T06:35:41;19.50;;;8.27;;
10473;SDS011;5284;50.446;7.904;2023-02-19T06:40:45;17.17;;;7.43;;
10473;SDS011;5284;50.446;7.904;2023-02-19T06:45:48;14.43;;;6.88;;
10473;SDS011;5284;50.446;7.904;2023-02-19T06:50:50;17.42;;;7.03;;
10473;SDS011;5284;50.446;7.904;2023-02-19T06:55:56;12.93;;;6.50;;
10473;SDS011;5284;50.446;7.904;2023-02-19T07:01:00;15.18;;;6.30;;
10473;SDS011;5284;50.446;7.904;2023-02-19T07:06:03;14.85;;;6.13;;
10473;SDS011;5284;50.446;7.904;2023-02-19T07:11:08;11.88;;;6.25;;
10473;SDS011;5284;50.446;7.904;2023-02-19T07:16:11;15.27;;;6.15;;
10473;SDS011;5284;50.446;7.904;2023-02-19T07:21:16;14.85;;;6.85;;
10473;SDS011;5284;50.446;7.904;2023-02-19T07:26:21;14.43;;;6.95;;
10473;SDS011;5284;50.446;7.904;2023-02-19T07:31:24;15.30;;;7.18;;
10473;SDS011;5284;50.446;7.904;2023-02-19T07:36:27;15.45;;;7.65;;
10473;SDS011;5284;50.446;7.904;2023-02-19T07:41:31;17.13;;;8.52;;
10473;SDS011;5284;50.446;7.904;2023-02-19T07:46:34;20.55;;;8.52;;
10473;SDS011;5284;50.446;7.904;2023-02-19T07:51:37;28.85;;;9.43;;
10473;SDS011;5284;50.446;7.904;2023-02-19T07:56:41;15.77;;;7.65;;
10473;SDS011;5284;50.446;7.904;2023-02-19T08:01:44;18.20;;;8.88;;
10473;SDS011;5284;50.446;7.904;2023-02-19T08:07:05;20.90;;;9.23;;
10473;SDS011;5284;50.446;7.904;2023-02-19T08:12:09;18.13;;;9.60;;
10473;SDS011;5284;50.446;7.904;2023-02-19T08:17:30;25.95;;;8.73;;
10473;SDS011;5284;50.446;7.904;2023-02-19T08:22:33;16.55;;;8.20;;
10473;SDS011;5284;50.446;7.904;2023-02-19T08:27:37;16.90;;;8.40;;
10473;SDS011;5284;50.446;7.904;2023-02-19T08:32:40;19.95;;;8.93;;
10473;SDS011;5284;50.446;7.904;2023-02-19T08:37:43;26.10;;;9.48;;
10473;SDS011;5284;50.446;7.904;2023-02-19T08:42:47;14.80;;;8.52;;
10473;SDS011;5284;50.446;7.904;2023-02-19T08:47:50;18.05;;;7.88;;
10473;SDS011;5284;50.446;7.904;2023-02-19T08:52:53;17.13;;;7.22;;
10473;SDS011;5284;50.446;7.904;2023-02-19T08:57:57;15.13;;;6.30;;
10473;SDS011;5284;50.446;7.904;2023-02-19T09:03:00;14.57;;;7.00;;
10473;SDS011;5284;50.446;7.904;2023-02-19T09:08:02;14.80;;;7.40;;
10473;SDS011;5284;50.446;7.904;2023-02-19T09:13:07;16.95;;;8.35;;
10473;SDS011;5284;50.446;7.904;2023-02-19T09:18:09;14.48;;;8.13;;
10473;SDS011;5284;50.446;7.904;2023-02-19T09:23:12;20.10;;;7.50;;
10473;SDS011;5284;50.446;7.904;2023-02-19T09:28:16;23.45;;;8.27;;
10473;SDS011;5284;50.446;7.904;2023-02-19T09:33:19;26.15;;;7.80;;
10473;SDS011;5284;50.446;7.904;2023-02-19T09:38:22;22.65;;;7.25;;
10473;SDS011;5284;50.446;7.904;2023-02-19T09:43:27;16.08;;;7.28;;
10473;SDS011;5284;50.446;7.904;2023-02-19T09:48:30;22.13;;;8.27;;
10473;SDS011;5284;50.446;7.904;2023-02-19T09:53:36;18.95;;;8.75;;
10473;SDS011;5284;50.446;7.904;2023-02-19T09:58:45;28.85;;;11.38;;
10473;SDS011;5284;50.446;7.904;2023-02-19T10:03:50;35.70;;;12.57;;
10473;SDS011;5284;50.446;7.904;2023-02-19T10:08:54;19.15;;;9.82;;
10473;SDS011;5284;50.446;7.904;2023-02-19T10:14:03;34.65;;;11.82;;
10473;SDS011;5284;50.446;7.904;2023-02-19T10:19:09;26.73;;;12.13;;
10473;SDS011;5284;50.446;7.904;2023-02-19T10:24:15;34.60;;;11.40;;
10473;SDS011;5284;50.446;7.904;2023-02-19T10:29:24;30.50;;;12.13;;
10473;SDS011;5284;50.446;7.904;2023-02-19T10:34:27;31.40;;;12.52;;
10473;SDS011;5284;50.446;7.904;2023-02-19T10:39:37;27.98;;;10.57;;
10473;SDS011;5284;50.446;7.904;2023-02-19T10:44:45;22.88;;;9.60;;
10473;SDS011;5284;50.446;7.904;2023-02-19T10:49:51;22.50;;;9.88;;
10473;SDS011;5284;50.446;7.904;2023-02-19T10:54:57;26.77;;;9.25;;
10473;SDS011;5284;50.446;7.904;2023-02-19T11:00:21;22.58;;;8.63;;
10473;SDS011;5284;50.446;7.904;2023-02-19T11:25:36;33.95;;;10.27;;
10473;SDS011;5284;50.446;7.904;2023-02-19T11:30:47;31.05;;;10.07;;
10473;SDS011;5284;50.446;7.904;2023-02-19T11:35:50;18.73;;;9.43;;
10473;SDS011;5284;50.446;7.904;2023-02-19T11:41:01;24.50;;;11.50;;
10473;SDS011;5284;50.446;7.904;2023-02-19T11:46:16;24.85;;;10.30;;
10473;SDS011;5284;50.446;7.904;2023-02-19T11:57:04;27.30;;;10.23;;
10473;SDS011;5284;50.446;7.904;2023-02-19T12:02:19;25.27;;;10.05;;
10473;SDS011;5284;50.446;7.904;2023-02-19T12:13:13;26.63;;;10.93;;
10473;SDS011;5284;50.446;7.904;2023-02-19T12:18:31;26.95;;;9.80;;
10473;SDS011;5284;50.446;7.904;2023-02-19T12:24:05;34.05;;;9.13;;
10473;SDS011;5284;50.446;7.904;2023-02-19T12:29:31;27.70;;;7.82;;
10473;SDS011;5284;50.446;7.904;2023-02-19T12:34:59;18.40;;;7.75;;
10473;SDS011;5284;50.446;7.904;2023-02-19T12:40:28;14.55;;;6.45;;
10473;SDS011;5284;50.446;7.904;2023-02-19T12:45:51;16.17;;;6.72;;
10473;SDS011;5284;50.446;7.904;2023-02-19T12:51:01;15.50;;;6.15;;
10473;SDS011;5284;50.446;7.904;2023-02-19T12:56:09;20.63;;;6.05;;
10473;SDS011;5284;50.446;7.904;2023-02-19T13:01:18;10.07;;;4.35;;
10473;SDS011;5284;50.446;7.904;2023-02-19T13:06:29;7.95;;;3.05;;
10473;SDS011;5284;50.446;7.904;2023-02-19T13:11:39;8.32;;;3.50;;
10473;SDS011;5284;50.446;7.904;2023-02-19T13:16:47;10.32;;;3.65;;
10473;SDS011;5284;50.446;7.904;2023-02-19T13:21:56;11.35;;;4.22;;
10473;SDS011;5284;50.446;7.904;2023-02-19T13:27:26;8.90;;;3.95;;
10473;SDS011;5284;50.446;7.904;2023-02-19T13:32:59;14.35;;;5.18;;
10473;SDS011;5284;50.446;7.904;2023-02-19T13:38:08;11.65;;;4.68;;
10473;SDS011;5284;50.446;7.904;2023-02-19T13:43:19;10.98;;;4.47;;
10473;SDS011;5284;50.446;7.904;2023-02-19T13:48:29;15.85;;;4.25;;
10473;SDS011;5284;50.446;7.904;2023-02-19T13:53:48;6.75;;;3.90;;
10473;SDS011;5284;50.446;7.904;2023-02-19T13:58:58;8.32;;;4.05;;
10473;SDS011;5284;50.446;7.904;2023-02-19T14:04:40;15.23;;;5.75;;
10473;SDS011;5284;50.446;7.904;2023-02-19T14:09:47;11.95;;;4.53;;
10473;SDS011;5284;50.446;7.904;2023-02-19T14:14:51;6.57;;;3.60;;
10473;SDS011;5284;50.446;7.904;2023-02-19T14:19:57;8.15;;;4.60;;
10473;SDS011;5284;50.446;7.904;2023-02-19T14:25:01;7.47;;;4.63;;
10473;SDS011;5284;50.446;7.904;2023-02-19T14:30:08;7.28;;;3.00;;
10473;SDS011;5284;50.446;7.904;2023-02-19T14:35:17;8.05;;;3.63;;
10473;SDS011;5284;50.446;7.904;2023-02-19T14:40:22;7.88;;;2.72;;
10473;SDS011;5284;50.446;7.904;2023-02-19T14:45:29;6.90;;;2.80;;
10473;SDS011;5284;50.446;7.904;2023-02-19T14:50:40;11.80;;;3.30;;
10473;SDS011;5284;50.446;7.904;2023-02-19T14:55:45;7.30;;;3.53;;
10473;SDS011;5284;50.446;7.904;2023-02-19T15:00:49;4.97;;;2.58;;
10473;SDS011;5284;50.446;7.904;2023-02-19T15:05:54;9.20;;;3.65;;
10473;SDS011;5284;50.446;7.904;2023-02-19T15:11:00;8.00;;;3.28;;
10473;SDS011;5284;50.446;7.904;2023-02-19T15:16:05;9.00;;;3.33;;
10473;SDS011;5284;50.446;7.904;2023-02-19T15:21:15;8.32;;;3.45;;
10473;SDS011;5284;50.446;7.904;2023-02-19T15:26:26;6.90;;;4.03;;
10473;SDS011;5284;50.446;7.904;2023-02-19T15:31:33;8.23;;;4.18;;
10473;SDS011;5284;50.446;7.904;2023-02-19T15:36:37;7.22;;;3.90;;
10473;SDS011;5284;50.446;7.904;2023-02-19T15:41:42;6.45;;;4.05;;
10473;SDS011;5284;50.446;7.904;2023-02-19T15:46:45;12.25;;;4.03;;
10473;SDS011;5284;50.446;7.904;2023-02-19T15:51:50;9.65;;;5.07;;
10473;SDS011;5284;50.446;7.904;2023-02-19T15:56:57;10.05;;;4.50;;
10473;SDS011;5284;50.446;7.904;2023-02-19T16:02:07;10.18;;;4.97;;
10473;SDS011;5284;50.446;7.904;2023-02-19T16:12:26;13.13;;;5.90;;
10473;SDS011;5284;50.446;7.904;2023-02-19T16:17:29;6.57;;;4.13;;
10473;SDS011;5284;50.446;7.904;2023-02-19T16:22:33;12.23;;;4.72;;
10473;SDS011;5284;50.446;7.904;2023-02-19T16:27:43;10.27;;;4.65;;
10473;SDS011;5284;50.446;7.904;2023-02-19T16:32:46;8.75;;;4.82;;
10473;SDS011;5284;50.446;7.904;2023-02-19T16:37:56;15.40;;;6.43;;
10473;SDS011;5284;50.446;7.904;2023-02-19T16:43:22;14.93;;;6.30;;
10473;SDS011;5284;50.446;7.904;2023-02-19T16:48:27;15.40;;;6.83;;
10473;SDS011;5284;50.446;7.904;2023-02-19T16:53:31;14.13;;;6.22;;
10473;SDS011;5284;50.446;7.904;2023-02-19T16:58:34;12.25;;;6.35;;
10473;SDS011;5284;50.446;7.904;2023-02-19T17:03:40;21.13;;;7.88;;
10473;SDS011;5284;50.446;7.904;2023-02-19T17:08:44;11.52;;;6.55;;
10473;SDS011;5284;50.446;7.904;2023-02-19T17:13:47;22.85;;;6.72;;
10473;SDS011;5284;50.446;7.904;2023-02-19T17:18:50;14.68;;;6.50;;
10473;SDS011;5284;50.446;7.904;2023-02-19T17:23:54;15.75;;;6.60;;
10473;SDS011;5284;50.446;7.904;2023-02-19T17:28:58;8.15;;;5.22;;
10473;SDS011;5284;50.446;7.904;2023-02-19T17:34:01;11.98;;;4.93;;
10473;SDS011;5284;50.446;7.904;2023-02-19T17:39:05;25.33;;;9.45;;
10473;SDS011;5284;50.446;7.904;2023-02-19T17:44:08;11.73;;;4.53;;
10473;SDS011;5284;50.446;7.904;2023-02-19T17:49:12;13.13;;;4.90;;
10473;SDS011;5284;50.446;7.904;2023-02-19T17:54:16;9.60;;;4.75;;
10473;SDS011;5284;50.446;7.904;2023-02-19T17:59:19;11.98;;;5.10;;
10473;SDS011;5284;50.446;7.904;2023-02-19T18:04:21;15.90;;;6.22;;
10473;SDS011;5284;50.446;7.904;2023-02-19T18:09:26;15.02;;;5.75;;
10473;SDS011;5284;50.446;7.904;2023-02-19T18:14:28;16.00;;;5.65;;
10473;SDS011;5284;50.446;7.904;2023-02-19T18:19:31;19.33;;;5.68;;
10473;SDS011;5284;50.446;7.904;2023-02-19T18:24:36;11.20;;;6.38;;
10473;SDS011;5284;50.446;7.904;2023-02-19T18:29:39;15.25;;;7.10;;
10473;SDS011;5284;50.446;7.904;2023-02-19T18:34:41;21.40;;;7.65;;
10473;SDS011;5284;50.446;7.904;2023-02-19T18:39:46;16.40;;;7.60;;
10473;SDS011;5284;50.446;7.904;2023-02-19T18:44:49;13.88;;;7.60;;
10473;SDS011;5284;50.446;7.904;2023-02-19T18:49:54;19.08;;;8.18;;
10473;SDS011;5284;50.446;7.904;2023-02-19T18:55:00;20.97;;;11.00;;
10473;SDS011;5284;50.446;7.904;2023-02-19T19:00:03;33.70;;;14.57;;
10473;SDS011;5284;50.446;7.904;2023-02-19T19:05:07;30.23;;;13.50;;
10473;SDS011;5284;50.446;7.904;2023-02-19T19:10:11;35.10;;;14.27;;
10473;SDS011;5284;50.446;7.904;2023-02-19T19:15:15;25.98;;;13.98;;
10473;SDS011;5284;50.446;7.904;2023-02-19T19:20:20;23.08;;;11.55;;
10473;SDS011;5284;50.446;7.904;2023-02-19T19:25:25;31.80;;;13.82;;
10473;SDS011;5284;50.446;7.904;2023-02-19T19:30:28;20.75;;;11.48;;
10473;SDS011;5284;50.446;7.904;2023-02-19T19:35:31;25.48;;;12.75;;
10473;SDS011;5284;50.446;7.904;2023-02-19T19:40:35;22.77;;;11.45;;
10473;SDS011;5284;50.446;7.904;2023-02-19T19:45:38;23.75;;;12.63;;
10473;SDS011;5284;50.446;7.904;2023-02-19T19:50:41;26.35;;;13.13;;
10473;SDS011;5284;50.446;7.904;2023-02-19T19:55:45;31.08;;;13.80;;
10473;SDS011;5284;50.446;7.904;2023-02-19T20:00:48;24.00;;;13.20;;
10473;SDS011;5284;50.446;7.904;2023-02-19T20:05:51;34.63;;;15.20;;
10473;SDS011;5284;50.446;7.904;2023-02-19T20:10:55;25.85;;;13.93;;
10473;SDS011;5284;50.446;7.904;2023-02-19T20:15:58;23.63;;;13.07;;
10473;SDS011;5284;50.446;7.904;2023-02-19T20:21:01;27.40;;;12.32;;
10473;SDS011;5284;50.446;7.904;2023-02-19T20:26:06;26.85;;;12.23;;
10473;SDS011;5284;50.446;7.904;2023-02-19T20:31:08;21.88;;;12.13;;
10473;SDS011;5284;50.446;7.904;2023-02-19T20:36:12;32.13;;;15.43;;
10473;SDS011;5284;50.446;7.904;2023-02-19T20:41:17;31.40;;;14.38;;
10473;SDS011;5284;50.446;7.904;2023-02-19T20:46:20;25.85;;;13.98;;
10473;SDS011;5284;50.446;7.904;2023-02-19T20:51:22;26.77;;;14.95;;
10473;SDS011;5284;50.446;7.904;2023-02-19T20:56:27;27.10;;;14.18;;
10473;SDS011;5284;50.446;7.904;2023-02-19T21:01:29;21.55;;;11.80;;
10473;SDS011;5284;50.446;7.904;2023-02-19T21:06:32;22.55;;;13.32;;
10473;SDS011;5284;50.446;7.904;2023-02-19T21:11:36;24.38;;;13.50;;
10473;SDS011;5284;50.446;7.904;2023-02-19T21:16:40;27.20;;;14.80;;
10473;SDS011;5284;50.446;7.904;2023-02-19T21:21:42;27.33;;;13.52;;
10473;SDS011;5284;50.446;7.904;2023-02-19T21:26:47;26.65;;;12.68;;
10473;SDS011;5284;50.446;7.904;2023-02-19T21:31:50;21.05;;;9.93;;
10473;SDS011;5284;50.446;7.904;2023-02-19T21:36:55;13.82;;;7.40;;
10473;SDS011;5284;50.446;7.904;2023-02-19T21:42:01;9.93;;;6.07;;
10473;SDS011;5284;50.446;7.904;2023-02-19T21:47:04;13.32;;;7.55;;
10473;SDS011;5284;50.446;7.904;2023-02-19T21:52:07;14.20;;;7.30;;
10473;SDS011;5284;50.446;7.904;2023-02-19T21:57:11;15.52;;;7.32;;
10473;SDS011;5284;50.446;7.904;2023-02-19T22:02:14;12.77;;;8.00;;
10473;SDS011;5284;50.446;7.904;2023-02-19T22:07:20;14.00;;;8.73;;
10473;SDS011;5284;50.446;7.904;2023-02-19T22:12:24;15.65;;;9.52;;
10473;SDS011;5284;50.446;7.904;2023-02-19T22:17:27;13.70;;;8.80;;
10473;SDS011;5284;50.446;7.904;2023-02-19T22:22:30;15.98;;;8.38;;
10473;SDS011;5284;50.446;7.904;2023-02-19T22:27:34;14.43;;;8.95;;
10473;SDS011;5284;50.446;7.904;2023-02-19T22:32:38;13.43;;;9.00;;
10473;SDS011;5284;50.446;7.904;2023-02-19T22:37:41;12.30;;;8.07;;
10473;SDS011;5284;50.446;7.904;2023-02-19T22:42:46;12.60;;;7.30;;
10473;SDS011;5284;50.446;7.904;2023-02-19T22:47:48;19.30;;;9.10;;
10473;SDS011;5284;50.446;7.904;2023-02-19T22:52:51;13.43;;;8.18;;
10473;SDS011;5284;50.446;7.904;2023-02-19T22:57:56;14.45;;;8.93;;
10473;SDS011;5284;50.446;7.904;2023-02-19T23:02:59;18.23;;;9.07;;
10473;SDS011;5284;50.446;7.904;2023-02-19T23:08:02;18.05;;;8.93;;
10473;SDS011;5284;50.446;7.904;2023-02-19T23:13:06;16.33;;;9.05;;
10473;SDS011;5284;50.446;7.904;2023-02-19T23:18:09;15.75;;;8.65;;
10473;SDS011;5284;50.446;7.904;2023-02-19T23:23:12;16.55;;;8.43;;
10473;SDS011;5284;50.446;7.904;2023-02-19T23:28:16;13.93;;;8.63;;
10473;SDS011;5284;50.446;7.904;2023-02-19T23:33:19;17.15;;;8.88;;
10473;SDS011;5284;50.446;7.904;2023-02-19T23:38:21;17.10;;;9.48;;
10473;SDS011;5284;50.446;7.904;2023-02-19T23:43:26;19.17;;;8.82;;
10473;SDS011;5284;50.446;7.904;2023-02-19T23:48:29;20.50;;;9.23;;
10473;SDS011;5284;50.446;7.904;2023-02-19T23:53:31;16.25;;;9.00;;
10473;SDS011;5284;50.446;7.904;2023-02-19T23:58:36;21.83;;;9.27;;
